Time;durP1;ratioP1;P1;durP2;ratioP2;P2;SDS_P1;SDS_P2;PMS_P1;PMS_P2;Temp;Humidity;BMP_temperature;BMP_pressure;BME280_temperature;BME280_humidity;BME280_pressure;Samples;Min_cycle;Max_cycle;Signal;HPM_P1;HPM_P2
2023/06/16 00:02:07;;;;;;;3.47;3.17;;;22.60;56.40;;;;;;4998360;28;20192;-70
2023/06/16 00:04:33;;;;;;;3.17;2.97;;;22.60;56.40;;;;;;5012110;28;20447;-71
2023/06/16 00:07:01;;;;;;;3.00;2.80;;;22.60;56.40;;;;;;4995530;28;20272;-70
2023/06/16 00:09:27;;;;;;;3.22;3.03;;;22.60;56.40;;;;;;5011831;28;20226;-71
2023/06/16 00:11:54;;;;;;;3.10;2.90;;;22.50;56.40;;;;;;4995369;28;20184;-70
2023/06/16 00:14:21;;;;;;;3.13;2.92;;;22.60;56.50;;;;;;4995917;28;20295;-70
2023/06/16 00:16:48;;;;;;;3.50;3.30;;;22.50;56.40;;;;;;5011873;28;20613;-71
2023/06/16 00:19:15;;;;;;;3.20;3.00;;;22.50;56.40;;;;;;5011864;28;20204;-71
2023/06/16 00:21:44;;;;;;;2.97;2.78;;;22.50;56.40;;;;;;4995571;28;20184;-70
2023/06/16 00:24:11;;;;;;;3.20;3.00;;;22.50;56.50;;;;;;5011782;28;20211;-70
2023/06/16 00:26:37;;;;;;;3.33;3.03;;;22.50;56.40;;;;;;5011747;28;20211;-70
2023/06/16 00:29:05;;;;;;;3.40;3.10;;;22.50;56.40;;;;;;5032027;28;20257;-71
2023/06/16 00:31:31;;;;;;;3.22;3.00;;;22.50;56.40;;;;;;5031262;28;20301;-70
2023/06/16 00:34:01;;;;;;;3.10;2.90;;;22.50;56.40;;;;;;5014938;28;20207;-70
2023/06/16 00:36:28;;;;;;;3.28;3.05;;;22.50;56.50;;;;;;5031237;28;20183;-70
2023/06/16 00:38:55;;;;;;;4.03;2.60;;;22.50;56.40;;;;;;5014826;28;20203;-70
2023/06/16 00:41:21;;;;;;;3.45;3.15;;;22.50;56.40;;;;;;5015097;28;20212;-69
2023/06/16 00:43:47;;;;;;;3.13;2.92;;;22.50;56.40;;;;;;5015037;28;20309;-70
2023/06/16 00:46:31;;;;;;;3.00;2.80;;;22.50;56.40;;;;;;5031476;28;20643;-70
2023/06/16 00:48:59;;;;;;;3.17;2.97;;;22.50;56.40;;;;;;5031202;28;20203;-71
2023/06/16 00:51:27;;;;;;;3.05;2.85;;;22.50;56.50;;;;;;5014296;28;20306;-70
2023/06/16 00:53:54;;;;;;;3.50;3.20;;;22.60;56.50;;;;;;5014838;28;20198;-71
2023/06/16 00:56:23;;;;;;;2.92;2.72;;;22.50;56.50;;;;;;5014912;28;20191;-71
2023/06/16 00:58:52;;;;;;;3.53;3.30;;;22.50;56.50;;;;;;5031060;28;20199;-70
2023/06/16 01:01:19;;;;;;;3.10;2.90;;;22.50;56.50;;;;;;5014813;28;20187;-70
2023/06/16 01:03:46;;;;;;;3.25;3.05;;;22.50;56.50;;;;;;5031039;28;20187;-71
2023/06/16 01:06:50;;;;;;;3.22;2.92;;;22.50;56.50;;;;;;5030854;28;20203;-70
2023/06/16 01:09:19;;;;;;;3.38;3.08;;;22.50;56.50;;;;;;5014465;28;20716;-71
2023/06/16 01:12:14;;;;;;;3.22;2.92;;;22.50;56.50;;;;;;5014168;28;20286;-70
2023/06/16 01:15:11;;;;;;;2.92;2.72;;;22.50;56.50;;;;;;5014721;28;20233;-70
2023/06/16 01:17:44;;;;;;;3.25;3.00;;;22.50;56.50;;;;;;5015081;28;20175;-71
2023/06/16 01:20:14;;;;;;;3.38;3.08;;;22.50;56.50;;;;;;5014628;28;20218;-70
2023/06/16 01:23:17;;;;;;;3.13;2.92;;;22.50;56.50;;;;;;5030698;28;20187;-70
2023/06/16 01:25:46;;;;;;;3.17;2.92;;;22.50;56.50;;;;;;5030958;28;20206;-70
2023/06/16 01:28:18;;;;;;;3.03;2.83;;;22.50;56.50;;;;;;5031001;28;20207;-71
2023/06/16 01:30:50;;;;;;;3.03;2.83;;;22.50;56.50;;;;;;5030796;28;20219;-72
2023/06/16 01:33:19;;;;;;;3.17;2.97;;;22.50;56.50;;;;;;5031131;28;20176;-70
2023/06/16 01:35:46;;;;;;;3.03;2.83;;;22.40;56.40;;;;;;5031965;28;20168;-70
2023/06/16 01:38:13;;;;;;;3.10;2.90;;;22.50;56.50;;;;;;5014633;28;20179;-70
2023/06/16 01:40:41;;;;;;;3.00;2.80;;;22.50;56.50;;;;;;5013935;28;20242;-71
2023/06/16 01:43:08;;;;;;;3.67;3.38;;;22.50;56.50;;;;;;5014436;28;20192;-70
2023/06/16 01:45:35;;;;;;;3.42;3.13;;;22.50;56.50;;;;;;5014400;28;20195;-70
2023/06/16 01:48:02;;;;;;;3.53;3.22;;;22.40;56.40;;;;;;5033413;28;20274;-71
2023/06/16 01:50:29;;;;;;;3.13;2.92;;;22.40;56.40;;;;;;5033983;28;20226;-70
2023/06/16 01:52:55;;;;;;;3.42;3.08;;;22.40;56.40;;;;;;5017853;28;20188;-71
2023/06/16 01:55:21;;;;;;;3.45;3.15;;;22.40;56.40;;;;;;5018169;28;20274;-71
2023/06/16 01:57:47;;;;;;;3.22;3.03;;;22.40;56.40;;;;;;5017851;28;20190;-71
2023/06/16 02:00:25;;;;;;;3.35;3.15;;;22.40;56.40;;;;;;5007804;28;20235;-71
2023/06/16 02:03:07;;;;;;;3.20;3.00;;;22.40;56.40;;;;;;5014560;28;20180;-70
2023/06/16 02:05:36;;;;;;;3.05;2.85;;;22.40;56.40;;;;;;4998025;28;20224;-71
2023/06/16 02:08:04;;;;;;;3.13;2.92;;;22.40;56.40;;;;;;4998015;28;20180;-71
2023/06/16 02:10:32;;;;;;;3.05;2.85;;;22.40;56.40;;;;;;4997670;28;20212;-71
2023/06/16 02:12:58;;;;;;;2.95;2.75;;;22.40;57.00;;;;;;5014191;28;20184;-71
2023/06/16 02:15:24;;;;;;;3.88;3.58;;;22.40;56.40;;;;;;5014422;28;20188;-70
2023/06/16 02:17:51;;;;;;;3.08;2.88;;;22.40;56.40;;;;;;4997947;28;20184;-71
2023/06/16 02:20:18;;;;;;;3.13;2.92;;;22.40;56.40;;;;;;5013988;28;20247;-71
2023/06/16 02:22:44;;;;;;;3.33;3.03;;;22.40;57.00;;;;;;4997396;28;20188;-70
2023/06/16 02:25:10;;;;;;;3.03;2.83;;;22.40;56.40;;;;;;5014375;28;20190;-71
2023/06/16 02:27:35;;;;;;;3.83;2.92;;;22.40;56.40;;;;;;5031816;28;20188;-70
2023/06/16 02:30:02;;;;;;;3.92;2.97;;;22.40;56.40;;;;;;5005738;28;20208;-70
2023/06/16 02:32:29;;;;;;;3.38;3.10;;;22.40;56.50;;;;;;5005404;28;20183;-70
2023/06/16 02:34:56;;;;;;;3.40;3.10;;;22.40;56.40;;;;;;5009943;28;20278;-70
2023/06/16 02:37:25;;;;;;;3.22;3.03;;;22.40;56.50;;;;;;5046598;28;20676;-70
2023/06/16 02:39:51;;;;;;;3.40;3.10;;;22.40;56.50;;;;;;5008564;28;20215;-72
2023/06/16 02:42:17;;;;;;;3.30;3.10;;;22.40;56.50;;;;;;5034218;28;20659;-71
2023/06/16 02:44:42;;;;;;;3.08;2.88;;;22.40;56.50;;;;;;5006098;28;20187;-71
2023/06/16 02:47:08;;;;;;;3.25;3.03;;;22.40;56.50;;;;;;5005525;28;20196;-70
2023/06/16 02:49:34;;;;;;;3.40;3.15;;;22.40;56.50;;;;;;5037748;28;20220;-70
2023/06/16 02:52:00;;;;;;;2.90;2.70;;;22.40;56.50;;;;;;5005170;28;20188;-71
2023/06/16 02:54:26;;;;;;;3.08;2.88;;;22.40;56.50;;;;;;5018188;28;20183;-71
2023/06/16 02:56:53;;;;;;;3.28;3.08;;;22.40;56.50;;;;;;4996823;28;20192;-71
2023/06/16 02:59:25;;;;;;;3.13;2.92;;;22.40;56.50;;;;;;5028297;28;20211;-70
2023/06/16 03:01:51;;;;;;;3.10;2.90;;;22.40;56.60;;;;;;5021281;28;20310;-71
2023/06/16 03:04:21;;;;;;;3.20;3.00;;;22.40;56.50;;;;;;5008912;28;20180;-69
2023/06/16 03:07:05;;;;;;;3.20;3.00;;;22.40;56.60;;;;;;5014225;28;20184;-71
2023/06/16 03:09:36;;;;;;;3.35;3.15;;;22.40;56.60;;;;;;4998451;28;20702;-70
2023/06/16 03:12:05;;;;;;;3.08;2.88;;;22.40;56.60;;;;;;5024583;28;20184;-71
2023/06/16 03:14:35;;;;;;;3.22;3.03;;;22.40;56.60;;;;;;5032741;28;20202;-71
2023/06/16 03:17:11;;;;;;;3.28;3.08;;;22.40;56.60;;;;;;5017547;28;20206;-71
2023/06/16 03:19:37;;;;;;;3.22;3.03;;;22.40;56.60;;;;;;5008138;28;20207;-70
2023/06/16 03:22:04;;;;;;;2.97;2.78;;;22.40;56.60;;;;;;5007750;28;20189;-70
2023/06/16 03:24:38;;;;;;;3.10;2.90;;;22.40;56.50;;;;;;5016262;28;20195;-74
2023/06/16 03:27:05;;;;;;;3.17;2.97;;;22.40;56.50;;;;;;5016166;28;20191;-70
2023/06/16 03:29:42;;;;;;;2.97;2.78;;;22.40;56.60;;;;;;5017038;28;20732;-71
2023/06/16 03:32:08;;;;;;;3.00;2.80;;;22.40;56.60;;;;;;5029422;28;20173;-70
2023/06/16 03:34:35;;;;;;;3.75;3.45;;;22.30;56.50;;;;;;5029393;28;20195;-70
2023/06/16 03:37:01;;;;;;;2.97;2.78;;;22.30;56.50;;;;;;5004497;28;20207;-70
2023/06/16 03:39:35;;;;;;;3.10;2.90;;;22.30;56.60;;;;;;5013321;28;20585;-70
2023/06/16 03:42:00;;;;;;;3.40;3.20;;;22.30;56.50;;;;;;5002898;28;20191;-69
2023/06/16 03:44:26;;;;;;;3.47;3.25;;;22.30;56.50;;;;;;5012375;28;20226;-70
2023/06/16 03:46:52;;;;;;;3.13;2.92;;;22.30;56.50;;;;;;5015336;28;20670;-70
2023/06/16 03:49:18;;;;;;;3.15;2.92;;;22.30;56.60;;;;;;5007387;28;20289;-70
2023/06/16 03:51:44;;;;;;;3.28;3.08;;;22.30;56.60;;;;;;5015496;28;20616;-71
2023/06/16 03:54:11;;;;;;;3.50;3.22;;;22.30;56.60;;;;;;5015458;28;20187;-70
2023/06/16 03:56:38;;;;;;;3.20;3.00;;;22.30;56.60;;;;;;5007315;28;20183;-71
2023/06/16 03:59:05;;;;;;;3.08;2.88;;;22.30;56.60;;;;;;5026939;28;20250;-70
2023/06/16 04:01:31;;;;;;;3.28;3.08;;;22.30;56.60;;;;;;5020373;28;20184;-71
2023/06/16 04:03:58;;;;;;;3.10;2.90;;;22.30;56.60;;;;;;5015271;28;20187;-71
2023/06/16 04:06:25;;;;;;;3.58;3.30;;;22.30;56.60;;;;;;5003032;28;20196;-70
2023/06/16 04:08:56;;;;;;;3.38;3.17;;;22.30;56.60;;;;;;5030631;28;20294;-71
2023/06/16 04:11:23;;;;;;;3.53;3.22;;;22.30;56.60;;;;;;5011296;28;20219;-70
2023/06/16 04:13:50;;;;;;;3.10;2.90;;;22.30;56.60;;;;;;5030413;28;20187;-70
2023/06/16 04:16:16;;;;;;;3.50;3.20;;;22.30;56.60;;;;;;5031678;28;20183;-72
2023/06/16 04:18:47;;;;;;;3.40;3.20;;;22.30;56.60;;;;;;5014887;28;20217;-71
2023/06/16 04:21:17;;;;;;;3.22;3.03;;;22.30;56.60;;;;;;5027834;28;20188;-70
2023/06/16 04:23:43;;;;;;;3.30;3.10;;;22.30;56.60;;;;;;5026211;28;20192;-70
2023/06/16 04:26:10;;;;;;;3.42;3.22;;;22.30;56.60;;;;;;5025195;28;20189;-69
2023/06/16 04:28:43;;;;;;;3.10;2.90;;;22.30;56.70;;;;;;5039576;28;20187;-70
2023/06/16 04:31:12;;;;;;;3.13;2.83;;;22.20;56.60;;;;;;5031604;28;20207;-70
2023/06/16 04:33:41;;;;;;;3.28;3.00;;;22.30;56.70;;;;;;5005820;28;20190;-70
2023/06/16 04:36:09;;;;;;;3.55;3.25;;;22.30;56.70;;;;;;5003516;28;20186;-70
2023/06/16 04:38:35;;;;;;;2.97;2.78;;;22.30;56.70;;;;;;5041743;28;20192;-70
2023/06/16 04:41:01;;;;;;;3.35;3.10;;;22.30;56.70;;;;;;5019052;28;20543;-71
2023/06/16 04:43:28;;;;;;;3.42;3.17;;;22.30;56.70;;;;;;5027260;28;20167;-70
2023/06/16 04:45:54;;;;;;;3.45;3.17;;;22.30;56.70;;;;;;5029078;28;20238;-70
2023/06/16 04:48:20;;;;;;;2.75;2.55;;;22.30;56.60;;;;;;5026154;28;20187;-70
2023/06/16 04:50:46;;;;;;;3.28;3.08;;;22.30;56.70;;;;;;5046932;28;20225;-70
2023/06/16 04:53:12;;;;;;;2.97;2.78;;;22.30;56.60;;;;;;5003110;28;20271;-70
2023/06/16 04:55:38;;;;;;;3.75;3.50;;;22.30;56.60;;;;;;5009406;28;20192;-69
2023/06/16 04:58:04;;;;;;;3.42;3.22;;;22.30;56.60;;;;;;5026817;28;20203;-70
2023/06/16 05:00:31;;;;;;;3.60;3.10;;;22.30;56.60;;;;;;5010826;28;20586;-70
2023/06/16 05:02:57;;;;;;;3.30;3.10;;;22.30;56.70;;;;;;5003188;28;20207;-70
2023/06/16 05:05:23;;;;;;;3.00;2.80;;;22.30;56.60;;;;;;5001736;28;20195;-69
2023/06/16 05:07:49;;;;;;;3.03;2.83;;;22.30;56.70;;;;;;5029476;28;20677;-69
2023/06/16 05:10:14;;;;;;;3.35;3.03;;;22.30;56.60;;;;;;5025710;28;20269;-70
2023/06/16 05:12:40;;;;;;;3.20;3.00;;;22.30;56.70;;;;;;5014038;28;20179;-71
2023/06/16 05:15:08;;;;;;;3.50;3.10;;;22.30;56.70;;;;;;5006577;28;20179;-70
2023/06/16 05:17:34;;;;;;;3.42;3.15;;;22.30;56.60;;;;;;5011409;28;20196;-70
2023/06/16 05:19:59;;;;;;;3.25;3.05;;;22.30;56.70;;;;;;5014101;28;20214;-70
2023/06/16 05:22:25;;;;;;;3.45;3.15;;;22.30;56.70;;;;;;5022197;28;20187;-71
2023/06/16 05:24:54;;;;;;;3.17;2.95;;;22.30;56.60;;;;;;5031162;28;20192;-70
2023/06/16 05:27:25;;;;;;;3.83;3.47;;;22.30;56.60;;;;;;5006951;28;20183;-71
2023/06/16 05:29:54;;;;;;;3.20;2.90;;;22.30;56.60;;;;;;5042309;28;20236;-72
2023/06/16 05:32:21;;;;;;;3.38;3.08;;;22.30;56.60;;;;;;5034711;28;20274;-71
2023/06/16 05:34:51;;;;;;;3.53;3.33;;;22.30;56.60;;;;;;5008222;28;20619;-71
2023/06/16 05:37:20;;;;;;;3.17;2.97;;;22.30;56.60;;;;;;5012288;28;20233;-71
2023/06/16 05:39:50;;;;;;;3.22;3.03;;;22.30;56.60;;;;;;5034385;28;20271;-72
2023/06/16 05:42:17;;;;;;;3.50;3.20;;;22.30;56.60;;;;;;5014465;28;20188;-71
2023/06/16 05:44:44;;;;;;;3.80;3.50;;;22.30;56.60;;;;;;5031692;28;20202;-71
2023/06/16 05:47:11;;;;;;;3.65;3.35;;;22.30;56.60;;;;;;5030681;28;20191;-70
2023/06/16 05:49:38;;;;;;;3.40;3.20;;;22.30;56.60;;;;;;5031164;28;20206;-71
2023/06/16 05:52:05;;;;;;;3.42;3.22;;;22.30;56.70;;;;;;5017913;28;20191;-71
2023/06/16 05:54:37;;;;;;;3.63;3.33;;;22.30;56.70;;;;;;5034306;28;20179;-70
2023/06/16 05:57:07;;;;;;;3.42;3.13;;;22.30;56.70;;;;;;5006924;28;20247;-71
2023/06/16 05:59:36;;;;;;;3.47;3.17;;;22.30;56.70;;;;;;5013748;28;20286;-71
2023/06/16 06:02:02;;;;;;;3.30;3.10;;;22.30;56.70;;;;;;5025816;28;20261;-70
2023/06/16 06:04:31;;;;;;;3.20;3.00;;;22.30;56.70;;;;;;5025607;28;20203;-71
2023/06/16 06:07:02;;;;;;;3.60;3.30;;;22.30;56.70;;;;;;5009380;28;20183;-71
2023/06/16 06:09:29;;;;;;;3.50;3.00;;;22.30;56.70;;;;;;5033701;28;20591;-71
2023/06/16 06:11:55;;;;;;;3.47;3.20;;;22.30;56.70;;;;;;5030625;28;20204;-71
2023/06/16 06:14:21;;;;;;;3.30;3.10;;;22.30;56.70;;;;;;5010736;28;20207;-71
2023/06/16 06:16:47;;;;;;;3.50;3.30;;;22.30;56.70;;;;;;5016364;28;20188;-72
2023/06/16 06:19:13;;;;;;;3.40;3.10;;;22.30;56.70;;;;;;5033696;28;20214;-72
2023/06/16 06:21:39;;;;;;;3.63;3.33;;;22.30;56.70;;;;;;5025376;28;20203;-71
2023/06/16 06:24:06;;;;;;;3.60;3.30;;;22.40;56.80;;;;;;5009261;28;20217;-72
2023/06/16 06:26:34;;;;;;;3.83;3.53;;;22.30;56.70;;;;;;5024335;28;20188;-71
2023/06/16 06:29:00;;;;;;;3.85;3.55;;;22.40;56.70;;;;;;5015099;28;20199;-71
2023/06/16 06:31:26;;;;;;;2.92;2.72;;;22.30;56.70;;;;;;5033198;28;20207;-71
2023/06/16 06:33:52;;;;;;;3.50;3.15;;;22.30;56.70;;;;;;5013174;28;20184;-71
2023/06/16 06:36:27;;;;;;;3.40;3.10;;;22.30;56.70;;;;;;5027232;28;20265;-71
2023/06/16 06:38:55;;;;;;;3.28;3.08;;;22.30;56.70;;;;;;5048677;28;20203;-71
2023/06/16 06:41:26;;;;;;;3.72;3.42;;;22.30;56.80;;;;;;5008713;28;20253;-71
2023/06/16 06:43:55;;;;;;;3.75;3.45;;;22.40;56.80;;;;;;5033200;28;20187;-71
2023/06/16 06:46:42;;;;;;;3.45;3.15;;;22.40;56.80;;;;;;5030538;28;20246;-71
2023/06/16 06:49:08;;;;;;;3.83;3.53;;;22.40;56.90;;;;;;5016532;28;20203;-72
2023/06/16 06:51:35;;;;;;;3.13;2.92;;;22.40;56.90;;;;;;5033172;28;20215;-71
2023/06/16 06:54:01;;;;;;;3.80;3.50;;;22.40;56.90;;;;;;5029458;28;20192;-71
2023/06/16 06:56:27;;;;;;;3.53;3.28;;;22.40;56.80;;;;;;5016431;28;20265;-70
2023/06/16 06:58:53;;;;;;;3.28;3.00;;;22.40;56.80;;;;;;5026051;28;20208;-70
2023/06/16 07:01:19;;;;;;;3.58;3.28;;;22.40;56.90;;;;;;5027862;28;20203;-72
2023/06/16 07:03:44;;;;;;;3.78;3.47;;;22.40;56.80;;;;;;5029936;28;20195;-74
2023/06/16 07:06:10;;;;;;;3.53;3.22;;;22.40;56.80;;;;;;5024760;28;20202;-71
2023/06/16 07:08:36;;;;;;;3.53;3.22;;;22.40;56.80;;;;;;5024844;28;20301;-71
2023/06/16 07:11:02;;;;;;;3.42;3.22;;;22.40;56.80;;;;;;5012959;28;20714;-71
2023/06/16 07:13:28;;;;;;;3.50;3.20;;;22.40;56.80;;;;;;5011103;28;20184;-71
2023/06/16 07:15:53;;;;;;;3.53;3.22;;;22.40;56.80;;;;;;5008130;28;20202;-71
2023/06/16 07:18:19;;;;;;;3.10;2.90;;;22.40;56.80;;;;;;5032856;28;20191;-72
2023/06/16 07:20:45;;;;;;;3.70;3.40;;;22.40;56.80;;;;;;5012945;28;20223;-72
2023/06/16 07:23:11;;;;;;;3.88;3.58;;;22.40;56.80;;;;;;5032641;28;20203;-71
2023/06/16 07:25:37;;;;;;;3.63;3.35;;;22.40;56.80;;;;;;5008087;28;20183;-71
2023/06/16 07:28:04;;;;;;;3.28;3.03;;;22.40;56.80;;;;;;5025065;28;20217;-69
2023/06/16 07:30:30;;;;;;;3.35;3.13;;;22.40;56.80;;;;;;5023351;28;20218;-71
2023/06/16 07:32:56;;;;;;;3.55;3.25;;;22.40;56.80;;;;;;5023999;28;20192;-71
2023/06/16 07:35:22;;;;;;;3.72;3.42;;;22.40;56.80;;;;;;5024072;28;20183;-71
2023/06/16 07:37:48;;;;;;;3.50;3.30;;;22.40;56.80;;;;;;5043053;28;20187;-70
2023/06/16 07:40:14;;;;;;;3.53;3.25;;;22.40;56.70;;;;;;5023787;28;20222;-72
2023/06/16 07:42:46;;;;;;;3.95;3.65;;;22.40;56.70;;;;;;5033329;28;20636;-71
2023/06/16 07:45:13;;;;;;;3.67;3.20;;;22.40;56.90;;;;;;5016997;28;20215;-71
2023/06/16 07:47:40;;;;;;;4.07;3.67;;;22.40;56.80;;;;;;5025013;28;20191;-71
2023/06/16 07:50:07;;;;;;;3.53;3.25;;;22.40;56.70;;;;;;5031511;28;20211;-71
2023/06/16 07:52:34;;;;;;;3.70;3.35;;;22.50;56.80;;;;;;5020337;28;20187;-70
2023/06/16 07:54:59;;;;;;;3.47;3.20;;;22.50;56.80;;;;;;5020221;28;20228;-71
2023/06/16 07:57:25;;;;;;;3.78;3.47;;;22.50;56.70;;;;;;5009904;28;20221;-71
2023/06/16 07:59:51;;;;;;;3.30;3.10;;;22.50;56.70;;;;;;5033998;28;20302;-71
2023/06/16 08:02:17;;;;;;;3.00;2.80;;;22.50;56.80;;;;;;5007939;28;20184;-73
2023/06/16 08:04:42;;;;;;;3.28;3.08;;;22.50;56.80;;;;;;5003532;28;20204;-71
2023/06/16 08:07:08;;;;;;;3.80;3.35;;;22.50;56.80;;;;;;5023274;28;20195;-71
2023/06/16 08:09:34;;;;;;;3.58;3.20;;;22.50;56.80;;;;;;5011997;28;20204;-71
2023/06/16 08:11:59;;;;;;;3.17;2.97;;;22.50;56.80;;;;;;5020934;28;20200;-69
2023/06/16 08:14:27;;;;;;;3.30;3.03;;;22.50;56.80;;;;;;5001383;28;20199;-71
2023/06/16 08:16:53;;;;;;;3.50;3.20;;;22.50;56.80;;;;;;5012799;28;20337;-70
2023/06/16 08:19:19;;;;;;;3.63;3.25;;;22.50;56.60;;;;;;5031185;28;20236;-70
2023/06/16 08:21:44;;;;;;;4.38;4.07;;;22.50;56.70;;;;;;5014692;28;20269;-74
2023/06/16 08:24:10;;;;;;;3.60;3.40;;;22.50;56.60;;;;;;5031640;28;20222;-71
2023/06/16 08:26:36;;;;;;;3.60;3.30;;;22.50;57.20;;;;;;5011586;28;20644;-71
2023/06/16 08:29:03;;;;;;;3.70;3.40;;;22.50;56.60;;;;;;5030021;28;20211;-73
2023/06/16 08:31:29;;;;;;;3.50;3.30;;;22.50;56.60;;;;;;5014840;28;20207;-71
2023/06/16 08:33:55;;;;;;;3.67;3.47;;;22.60;56.60;;;;;;5031393;28;20202;-70
2023/06/16 08:36:23;;;;;;;3.05;2.85;;;22.50;56.50;;;;;;5031315;28;20190;-69
2023/06/16 08:38:48;;;;;;;3.72;3.42;;;22.60;56.60;;;;;;5026605;28;20603;-71
2023/06/16 08:41:18;;;;;;;3.45;3.20;;;22.60;56.70;;;;;;5031079;28;20677;-72
2023/06/16 08:43:48;;;;;;;3.67;3.33;;;22.60;56.50;;;;;;5027944;28;20191;-69
2023/06/16 08:46:15;;;;;;;3.17;2.97;;;22.60;56.70;;;;;;5011785;28;20231;-71
2023/06/16 08:48:41;;;;;;;3.60;3.30;;;22.60;56.60;;;;;;5026890;28;20642;-71
2023/06/16 08:51:14;;;;;;;3.28;3.05;;;22.70;56.60;;;;;;5014325;28;20637;-71
2023/06/16 08:53:45;;;;;;;3.20;3.00;;;22.70;56.60;;;;;;5031294;28;20285;-70
2023/06/16 08:56:11;;;;;;;4.05;3.70;;;22.70;56.60;;;;;;5023552;28;20195;-71
2023/06/16 08:58:40;;;;;;;3.58;3.13;;;22.60;56.70;;;;;;5042620;28;20180;-71
2023/06/16 09:01:06;;;;;;;3.22;3.03;;;22.60;56.50;;;;;;5014690;28;20198;-71
2023/06/16 09:03:34;;;;;;;3.65;3.35;;;22.60;56.50;;;;;;5031205;28;20187;-70
2023/06/16 09:06:01;;;;;;;3.10;2.90;;;22.60;56.50;;;;;;5006450;28;20226;-70
2023/06/16 09:08:28;;;;;;;4.07;3.10;;;22.70;56.60;;;;;;5030869;28;20207;-70
2023/06/16 09:10:57;;;;;;;3.60;3.30;;;22.70;56.60;;;;;;5014360;28;20309;-70
2023/06/16 09:13:24;;;;;;;3.03;2.83;;;22.70;56.60;;;;;;5014496;28;20218;-70
2023/06/16 09:15:51;;;;;;;3.17;2.90;;;22.70;56.60;;;;;;5014233;28;20608;-70
2023/06/16 09:18:18;;;;;;;3.20;2.90;;;22.70;56.50;;;;;;5031060;28;20179;-71
2023/06/16 09:20:53;;;;;;;3.20;3.00;;;22.70;56.40;;;;;;5027371;28;20208;-71
2023/06/16 09:23:28;;;;;;;3.10;2.80;;;22.70;56.30;;;;;;5012339;28;20278;-70
2023/06/16 09:25:54;;;;;;;3.22;3.03;;;22.70;56.50;;;;;;5011199;28;20187;-71
2023/06/16 09:28:34;;;;;;;3.58;3.28;;;22.70;56.60;;;;;;5007386;28;20199;-71
2023/06/16 09:31:03;;;;;;;3.35;3.08;;;22.70;56.60;;;;;;5030670;28;20199;-71
2023/06/16 09:33:30;;;;;;;3.22;3.00;;;22.70;56.60;;;;;;5030916;28;20268;-71
2023/06/16 09:35:56;;;;;;;3.50;3.20;;;22.70;56.60;;;;;;5030979;28;20176;-71
2023/06/16 09:38:22;;;;;;;3.40;3.05;;;22.70;56.50;;;;;;5026337;28;20591;-71
2023/06/16 09:40:48;;;;;;;3.28;3.08;;;22.70;56.60;;;;;;5030347;28;20276;-70
2023/06/16 09:43:15;;;;;;;4.00;3.70;;;22.70;56.40;;;;;;5018580;28;20271;-70
2023/06/16 09:45:41;;;;;;;3.42;3.13;;;22.70;56.20;;;;;;5022786;28;20188;-72
2023/06/16 09:48:10;;;;;;;3.50;3.20;;;22.70;56.20;;;;;;5007478;28;20221;-72
2023/06/16 09:50:37;;;;;;;3.28;2.97;;;22.70;56.30;;;;;;5030421;28;20219;-71
2023/06/16 09:53:06;;;;;;;3.17;2.97;;;22.70;56.30;;;;;;5038957;28;20331;-72
2023/06/16 09:55:36;;;;;;;4.43;3.58;;;22.70;56.20;;;;;;5008069;28;20180;-71
2023/06/16 09:58:02;;;;;;;4.28;3.17;;;22.70;56.10;;;;;;5021159;28;20199;-69
2023/06/16 10:00:30;;;;;;;3.38;3.08;;;22.70;56.10;;;;;;5034218;28;20217;-69
2023/06/16 10:02:57;;;;;;;3.65;3.35;;;22.70;56.10;;;;;;5022035;28;20219;-71
2023/06/16 10:05:24;;;;;;;3.53;3.15;;;22.70;56.00;;;;;;5029566;28;20198;-70
2023/06/16 10:07:52;;;;;;;3.75;3.25;;;22.70;55.90;;;;;;5027362;28;20268;-70
2023/06/16 10:10:25;;;;;;;3.38;3.13;;;22.70;56.00;;;;;;5018865;28;20211;-71
2023/06/16 10:12:53;;;;;;;3.35;3.05;;;22.70;56.00;;;;;;5016258;28;20187;-70
2023/06/16 10:15:26;;;;;;;3.03;2.83;;;22.80;56.20;;;;;;5006291;28;20319;-71
2023/06/16 10:17:54;;;;;;;3.22;3.03;;;22.70;56.20;;;;;;5015643;28;20272;-71
2023/06/16 10:20:25;;;;;;;3.70;3.40;;;22.80;56.20;;;;;;5025626;28;20208;-71
2023/06/16 10:22:51;;;;;;;3.33;3.03;;;22.70;56.20;;;;;;5026291;28;20683;-70
2023/06/16 10:25:19;;;;;;;4.15;3.45;;;22.80;56.10;;;;;;5011134;28;20223;-70
2023/06/16 10:27:46;;;;;;;3.17;2.88;;;22.80;56.10;;;;;;5030028;28;20285;-72
2023/06/16 10:30:19;;;;;;;3.83;3.45;;;22.80;56.30;;;;;;5013047;28;20221;-70
2023/06/16 10:32:49;;;;;;;3.67;3.38;;;22.80;56.20;;;;;;5021927;28;20214;-72
2023/06/16 10:35:17;;;;;;;3.45;3.20;;;22.80;56.20;;;;;;5013600;28;20415;-71
2023/06/16 10:37:48;;;;;;;3.13;2.83;;;22.80;56.00;;;;;;5020361;28;20179;-72
2023/06/16 10:40:14;;;;;;;4.47;3.28;;;22.80;56.10;;;;;;5033621;28;20211;-69
2023/06/16 10:42:41;;;;;;;10.43;3.47;;;22.80;56.10;;;;;;5050283;28;20201;-70
2023/06/16 10:45:31;;;;;;;3.25;2.95;;;22.80;56.20;;;;;;5041732;28;20192;-70
2023/06/16 10:48:04;;;;;;;3.78;3.47;;;22.80;56.30;;;;;;5033543;28;20273;-72
2023/06/16 10:50:58;;;;;;;4.78;4.10;;;22.70;56.40;;;;;;5029769;28;20220;-71
2023/06/16 10:53:24;;;;;;;3.88;3.58;;;22.80;56.50;;;;;;4997564;28;20194;-71
2023/06/16 10:56:07;;;;;;;4.38;3.22;;;22.80;56.50;;;;;;5013679;28;20184;-71
2023/06/16 10:58:32;;;;;;;4.55;3.42;;;22.80;56.00;;;;;;5013568;28;20188;-71
2023/06/16 11:01:05;;;;;;;4.07;3.22;;;22.80;56.20;;;;;;5013286;28;20230;-70
2023/06/16 11:03:34;;;;;;;3.83;3.53;;;22.80;56.10;;;;;;5026934;28;20199;-70
2023/06/16 11:06:01;;;;;;;3.97;3.58;;;22.80;56.10;;;;;;5009488;28;20216;-69
2023/06/16 11:08:30;;;;;;;3.55;3.33;;;22.80;56.20;;;;;;5025914;28;20223;-71
2023/06/16 11:11:02;;;;;;;3.53;3.22;;;22.80;56.10;;;;;;5032949;28;20302;-71
2023/06/16 11:13:33;;;;;;;3.83;3.47;;;22.80;56.20;;;;;;5024415;28;20191;-72
2023/06/16 11:16:01;;;;;;;3.40;3.10;;;22.90;56.30;;;;;;5028780;28;20188;-72
2023/06/16 11:18:28;;;;;;;3.78;3.30;;;22.80;56.40;;;;;;5012668;28;20183;-71
2023/06/16 11:21:00;;;;;;;3.47;3.17;;;22.80;56.40;;;;;;5010340;28;20231;-70
2023/06/16 11:23:26;;;;;;;3.50;3.20;;;22.80;56.40;;;;;;5025230;28;20195;-70
2023/06/16 11:26:01;;;;;;;3.50;3.20;;;22.80;56.40;;;;;;5033788;28;20191;-70
2023/06/16 11:28:27;;;;;;;4.07;3.60;;;22.80;56.40;;;;;;5013252;28;20186;-73
2023/06/16 11:30:53;;;;;;;3.15;2.90;;;22.80;56.30;;;;;;5031665;28;20211;-72
2023/06/16 11:33:21;;;;;;;3.30;3.10;;;22.80;56.30;;;;;;5032170;28;20655;-70
2023/06/16 11:35:47;;;;;;;3.38;3.08;;;22.90;56.30;;;;;;5012348;28;20598;-70
2023/06/16 11:38:21;;;;;;;3.83;3.40;;;22.80;56.10;;;;;;5014667;28;20187;-70
2023/06/16 11:40:48;;;;;;;4.00;3.10;;;22.80;55.90;;;;;;5028546;28;20274;-70
2023/06/16 11:43:16;;;;;;;2.88;2.67;;;22.80;55.90;;;;;;5032389;28;20249;-71
2023/06/16 11:45:41;;;;;;;4.15;3.17;;;22.90;56.00;;;;;;5015709;28;20194;-71
2023/06/16 11:48:09;;;;;;;3.70;3.20;;;22.80;55.90;;;;;;5032206;28;20187;-71
2023/06/16 11:50:36;;;;;;;4.78;3.72;;;22.90;55.90;;;;;;5031753;28;20230;-70
2023/06/16 11:53:03;;;;;;;4.82;3.38;;;22.90;56.00;;;;;;5025111;28;20242;-70
2023/06/16 11:55:29;;;;;;;4.03;3.60;;;22.90;56.00;;;;;;5012180;28;20183;-70
2023/06/16 11:57:57;;;;;;;3.50;3.17;;;22.80;55.80;;;;;;5014634;28;20191;-69
2023/06/16 12:00:23;;;;;;;4.10;3.67;;;22.90;56.00;;;;;;5012324;28;20699;-70
2023/06/16 12:02:50;;;;;;;3.83;3.38;;;22.90;56.20;;;;;;5027136;28;20191;-70
2023/06/16 12:05:30;;;;;;;3.80;3.50;;;22.90;56.00;;;;;;5015080;28;20662;-75
2023/06/16 12:07:56;;;;;;;4.47;3.25;;;22.90;56.10;;;;;;5028606;28;20192;-70
2023/06/16 12:10:25;;;;;;;3.58;3.28;;;22.80;56.30;;;;;;5014674;28;20265;-70
2023/06/16 12:12:51;;;;;;;3.53;3.20;;;22.90;56.30;;;;;;5014884;28;20275;-70
2023/06/16 12:15:20;;;;;;;3.53;3.28;;;22.80;56.10;;;;;;5014532;28;20580;-70
2023/06/16 12:17:47;;;;;;;3.40;3.20;;;22.90;56.60;;;;;;5028144;28;20196;-70
2023/06/16 12:20:15;;;;;;;3.70;3.40;;;22.90;56.20;;;;;;5011281;28;20292;-71
2023/06/16 12:22:42;;;;;;;3.75;3.38;;;22.90;56.30;;;;;;5025833;28;20191;-70
2023/06/16 12:25:16;;;;;;;3.17;2.97;;;22.90;56.00;;;;;;5031660;28;20187;-70
2023/06/16 12:27:49;;;;;;;3.70;3.40;;;22.90;55.90;;;;;;5009594;28;20210;-70
2023/06/16 12:30:15;;;;;;;3.72;3.20;;;22.90;55.90;;;;;;5028880;28;20219;-70
2023/06/16 12:32:42;;;;;;;3.08;2.88;;;22.90;55.80;;;;;;5020647;28;20658;-70
2023/06/16 12:35:09;;;;;;;3.42;3.13;;;22.90;56.20;;;;;;5029117;28;20577;-70
2023/06/16 12:37:39;;;;;;;3.90;3.60;;;22.90;56.10;;;;;;5014592;28;20603;-70
2023/06/16 12:40:10;;;;;;;3.72;3.40;;;22.90;56.00;;;;;;5030439;28;20203;-70
2023/06/16 12:42:37;;;;;;;4.55;3.50;;;22.80;56.00;;;;;;5014716;28;20183;-70
2023/06/16 12:45:07;;;;;;;4.35;3.35;;;22.90;56.10;;;;;;5031178;28;20195;-70
2023/06/16 12:47:35;;;;;;;5.05;3.20;;;22.90;56.00;;;;;;5028235;28;20191;-69
2023/06/16 12:50:04;;;;;;;3.58;3.28;;;22.90;55.60;;;;;;5011350;28;20252;-71
2023/06/16 12:52:30;;;;;;;3.95;3.65;;;22.90;55.90;;;;;;5020275;28;20188;-71
2023/06/16 12:54:59;;;;;;;3.90;3.50;;;22.90;55.80;;;;;;5027221;28;20277;-70